Time;durP1;ratioP1;P1;durP2;ratioP2;P2;SDS_P1;SDS_P2;PMS_P1;PMS_P2;Temp;Humidity;BMP_temperature;BMP_pressure;BME280_temperature;BME280_humidity;BME280_pressure;Samples;Min_cycle;Max_cycle;Signal;HPM_P1;HPM_P2
2024/02/22 00:00:49;;;;;;;19.50;3.17;;;10.40;99.90;;;;;;6178054;28;20046;-87
2024/02/22 00:03:51;;;;;;;16.20;3.30;;;10.40;99.90;;;;;;6173271;28;20050;-87
2024/02/22 00:06:53;;;;;;;25.55;3.17;;;10.40;99.90;;;;;;6196167;28;20046;-87
2024/02/22 00:09:57;;;;;;;19.67;3.10;;;10.40;99.90;;;;;;6173541;28;20186;-86
2024/02/22 00:12:58;;;;;;;14.18;3.03;;;10.40;99.90;;;;;;6193887;28;20177;-87
2024/02/22 00:16:05;;;;;;;22.73;2.95;;;10.70;99.90;;;;;;6164242;28;20065;-87
2024/02/22 00:19:07;;;;;;;19.02;3.63;;;10.40;99.90;;;;;;6172397;28;20063;-86
2024/02/22 00:22:10;;;;;;;14.07;2.75;;;10.70;99.90;;;;;;6211435;28;20054;-86
2024/02/22 00:25:12;;;;;;;18.95;2.67;;;10.50;99.90;;;;;;6173335;28;20047;-86
2024/02/22 00:28:13;;;;;;;17.75;2.88;;;10.40;99.90;;;;;;6190169;28;20129;-86
2024/02/22 00:31:15;;;;;;;17.63;3.17;;;10.30;99.90;;;;;;6178922;28;20046;-85
2024/02/22 00:34:17;;;;;;;16.77;3.10;;;10.60;99.90;;;;;;6170007;28;20092;-86
2024/02/22 00:37:19;;;;;;;19.92;4.03;;;;;;;;;;6170981;28;20059;-85
2024/02/22 00:40:21;;;;;;;23.98;3.65;;;10.10;99.90;;;;;;6194526;28;20042;-86
2024/02/22 00:43:29;;;;;;;22.92;3.40;;;10.10;99.90;;;;;;6173862;28;20073;-85
2024/02/22 00:46:40;;;;;;;23.63;3.65;;;10.00;99.90;;;;;;6171301;28;20054;-87
2024/02/22 00:49:42;;;;;;;22.40;3.22;;;9.90;99.90;;;;;;6212238;28;20110;-88
2024/02/22 00:52:44;;;;;;;22.08;3.70;;;9.90;99.90;;;;;;6172089;28;20050;-86
2024/02/22 00:55:45;;;;;;;19.10;3.42;;;9.80;99.90;;;;;;6196855;28;20046;-86
2024/02/22 00:58:47;;;;;;;19.52;3.50;;;9.80;99.90;;;;;;6191082;28;20058;-86
2024/02/22 01:01:50;;;;;;;27.13;3.55;;;9.70;99.90;;;;;;6169741;28;20467;-86
2024/02/22 01:04:51;;;;;;;24.67;3.42;;;10.00;99.90;;;;;;6196331;28;20402;-86
2024/02/22 01:07:53;;;;;;;21.55;3.25;;;9.60;99.90;;;;;;6175626;28;20070;-85
2024/02/22 01:10:55;;;;;;;22.25;3.55;;;9.50;99.90;;;;;;6202844;28;20498;-86
2024/02/22 01:13:56;;;;;;;17.63;3.47;;;9.50;99.90;;;;;;6168941;28;20063;-86
2024/02/22 01:16:58;;;;;;;22.92;3.15;;;9.40;99.90;;;;;;6194215;28;20050;-86
2024/02/22 01:20:00;;;;;;;22.48;3.00;;;9.30;99.90;;;;;;6177437;28;20506;-85
2024/02/22 01:23:06;;;;;;;20.80;4.00;;;9.40;99.90;;;;;;6195951;28;20050;-87
2024/02/22 01:26:08;;;;;;;21.90;3.70;;;9.20;99.90;;;;;;6187977;28;20185;-86
2024/02/22 01:29:10;;;;;;;24.88;3.85;;;9.20;99.90;;;;;;6175235;28;20537;-87
2024/02/22 01:32:11;;;;;;;26.80;4.03;;;9.20;99.90;;;;;;6174991;28;20514;-86
2024/02/22 01:35:13;;;;;;;26.75;3.53;;;9.20;99.90;;;;;;6197908;28;20132;-85
2024/02/22 01:38:15;;;;;;;29.83;3.67;;;9.20;99.90;;;;;;6190505;28;20569;-85
2024/02/22 01:41:17;;;;;;;25.25;3.90;;;9.20;99.90;;;;;;6176886;28;20502;-86
2024/02/22 01:44:18;;;;;;;21.55;3.30;;;9.10;99.90;;;;;;6186048;28;20149;-86
2024/02/22 01:47:34;;;;;;;20.85;3.55;;;9.00;99.90;;;;;;6176250;28;20054;-85
2024/02/22 01:50:36;;;;;;;24.52;4.13;;;8.90;99.90;;;;;;6200032;28;20136;-86
2024/02/22 01:53:37;;;;;;;23.95;3.70;;;8.90;99.90;;;;;;6175984;28;20066;-85
2024/02/22 01:56:39;;;;;;;18.10;3.72;;;8.90;99.90;;;;;;6198972;28;20046;-85
2024/02/22 01:59:41;;;;;;;24.98;3.90;;;8.80;99.90;;;;;;6187932;28;20434;-86
2024/02/22 02:02:42;;;;;;;25.88;3.78;;;8.90;99.90;;;;;;6177057;28;20054;-86
2024/02/22 02:05:44;;;;;;;26.27;4.20;;;8.90;99.90;;;;;;6200336;28;20426;-87
2024/02/22 02:08:47;;;;;;;31.13;4.40;;;9.00;99.90;;;;;;6189410;28;20050;-85
2024/02/22 02:11:49;;;;;;;24.65;4.32;;;9.10;99.90;;;;;;6176377;28;20517;-86
2024/02/22 02:14:51;;;;;;;30.90;5.03;;;9.00;99.90;;;;;;6193479;28;20054;-85
2024/02/22 02:17:52;;;;;;;23.67;4.68;;;9.00;99.90;;;;;;6195618;28;20046;-86
2024/02/22 02:20:54;;;;;;;30.67;4.45;;;9.00;99.90;;;;;;6186904;28;20058;-86
2024/02/22 02:23:57;;;;;;;25.27;4.20;;;8.90;99.90;;;;;;6175295;28;20054;-87
2024/02/22 02:26:59;;;;;;;24.35;3.95;;;8.90;99.90;;;;;;6198615;28;20054;-85
2024/02/22 02:30:01;;;;;;;25.27;4.55;;;9.00;99.90;;;;;;6194616;28;20058;-86
2024/02/22 02:33:03;;;;;;;31.67;4.75;;;9.00;99.90;;;;;;6198609;28;20054;-85
2024/02/22 02:36:05;;;;;;;29.52;4.85;;;9.00;99.90;;;;;;6175968;28;20406;-86
2024/02/22 02:39:06;;;;;;;24.48;4.50;;;9.10;99.90;;;;;;6192188;28;20054;-86
2024/02/22 02:42:08;;;;;;;31.60;4.22;;;9.10;99.90;;;;;;6201729;28;20065;-86
2024/02/22 02:45:10;;;;;;;25.23;4.05;;;9.10;99.90;;;;;;6163389;28;20438;-87
2024/02/22 02:48:14;;;;;;;26.50;4.25;;;9.10;99.90;;;;;;6199007;28;20056;-87
2024/02/22 02:51:15;;;;;;;26.15;4.25;;;9.20;99.90;;;;;;6184818;28;20050;-87
2024/02/22 02:54:17;;;;;;;25.02;4.15;;;9.20;99.90;;;;;;6178199;28;20051;-87
2024/02/22 02:57:21;;;;;;;29.95;4.25;;;9.20;99.90;;;;;;6201752;28;20058;-88
2024/02/22 03:00:23;;;;;;;32.92;4.43;;;9.20;99.90;;;;;;6163074;28;20099;-87
2024/02/22 03:03:24;;;;;;;30.55;3.92;;;9.20;99.90;;;;;;6200519;28;20494;-86
2024/02/22 03:06:26;;;;;;;21.63;3.53;;;9.30;99.90;;;;;;6177506;28;20645;-87
2024/02/22 03:09:28;;;;;;;23.20;3.53;;;9.30;99.90;;;;;;6199139;28;20425;-86
2024/02/22 03:12:29;;;;;;;23.45;3.10;;;9.40;99.90;;;;;;6175869;28;20050;-87
2024/02/22 03:15:31;;;;;;;18.95;2.95;;;9.50;99.90;;;;;;6193318;28;20129;-87
2024/02/22 03:18:36;;;;;;;27.27;4.15;;;9.60;99.90;;;;;;6175931;28;20062;-86
2024/02/22 03:21:38;;;;;;;20.42;3.50;;;9.50;99.90;;;;;;6197857;28;20055;-86
2024/02/22 03:24:40;;;;;;;26.77;4.03;;;9.40;99.90;;;;;;6198680;28;20153;-86
2024/02/22 03:27:44;;;;;;;26.95;3.30;;;9.40;99.90;;;;;;6174074;28;20548;-86
2024/02/22 03:30:49;;;;;;;21.70;3.33;;;9.50;99.90;;;;;;6179740;28;20042;-87
2024/02/22 03:33:51;;;;;;;21.48;3.35;;;9.30;99.90;;;;;;6174050;28;20513;-87
2024/02/22 03:36:53;;;;;;;16.13;3.03;;;9.30;99.90;;;;;;6175494;28;20062;-85
2024/02/22 03:39:54;;;;;;;25.60;4.25;;;9.30;99.90;;;;;;6197958;28;20058;-86
2024/02/22 03:42:57;;;;;;;23.73;3.83;;;9.40;99.90;;;;;;6175483;28;20422;-84
2024/02/22 03:45:59;;;;;;;20.25;3.13;;;9.30;99.90;;;;;;6180175;28;20540;-86
2024/02/22 03:49:01;;;;;;;24.45;3.45;;;9.30;99.90;;;;;;6173177;28;20069;-87
2024/02/22 03:52:02;;;;;;;26.13;4.07;;;9.20;99.90;;;;;;6212049;28;20383;-85
2024/02/22 03:55:04;;;;;;;24.25;3.03;;;9.30;99.90;;;;;;6196614;28;20077;-85
2024/02/22 03:58:06;;;;;;;21.25;3.40;;;9.30;99.90;;;;;;6174490;28;20058;-86
2024/02/22 04:01:08;;;;;;;17.98;2.80;;;9.40;99.90;;;;;;6194783;28;20058;-86
2024/02/22 04:04:11;;;;;;;19.67;2.60;;;9.50;99.90;;;;;;6176591;28;20047;-85
2024/02/22 04:07:13;;;;;;;22.58;3.35;;;9.60;99.90;;;;;;6205673;28;20060;-84
2024/02/22 04:10:14;;;;;;;22.10;2.72;;;9.60;99.90;;;;;;6201883;28;20494;-86
2024/02/22 04:13:16;;;;;;;16.95;2.85;;;9.70;99.90;;;;;;6178083;28;20049;-86
2024/02/22 04:16:17;;;;;;;18.70;2.65;;;9.80;99.90;;;;;;6179208;28;20054;-85
2024/02/22 04:19:19;;;;;;;18.73;3.30;;;9.80;99.90;;;;;;6173999;28;20058;-86
2024/02/22 04:22:21;;;;;;;21.83;2.97;;;9.80;99.90;;;;;;6213944;28;20062;-85
2024/02/22 04:25:23;;;;;;;22.23;3.38;;;9.90;99.90;;;;;;6174732;28;20054;-88
2024/02/22 04:28:25;;;;;;;23.27;3.70;;;9.90;99.90;;;;;;6180502;28;20051;-85
2024/02/22 04:31:26;;;;;;;16.02;3.00;;;10.00;99.90;;;;;;6198929;28;20047;-86
2024/02/22 04:34:28;;;;;;;19.60;2.72;;;10.00;99.90;;;;;;6175048;28;20066;-84
2024/02/22 04:37:30;;;;;;;20.55;3.53;;;10.00;99.90;;;;;;6196918;28;20061;-86
2024/02/22 04:40:32;;;;;;;16.98;2.88;;;10.00;99.90;;;;;;6172170;28;20141;-86
2024/02/22 04:43:33;;;;;;;18.08;2.88;;;10.00;99.90;;;;;;6199049;23;20806;-86
2024/02/22 04:46:35;;;;;;;19.90;3.25;;;9.90;99.90;;;;;;6199472;28;20514;-86
2024/02/22 04:49:37;;;;;;;19.75;3.08;;;9.90;99.90;;;;;;6175293;28;20524;-86
2024/02/22 04:52:39;;;;;;;17.45;2.83;;;9.70;99.90;;;;;;6197097;28;20074;-87
2024/02/22 04:55:41;;;;;;;18.63;2.83;;;9.70;99.90;;;;;;6174552;28;20058;-85
2024/02/22 04:58:43;;;;;;;21.45;2.90;;;9.70;99.90;;;;;;6187442;28;20073;-87
2024/02/22 05:01:45;;;;;;;19.02;3.00;;;9.70;99.90;;;;;;6199029;28;20624;-86
2024/02/22 05:04:47;;;;;;;15.45;2.90;;;9.60;99.90;;;;;;6175466;28;20054;-87
2024/02/22 05:07:49;;;;;;;16.80;2.90;;;9.60;99.90;;;;;;6197114;28;20532;-88
2024/02/22 05:10:51;;;;;;;10.88;2.40;;;9.70;99.90;;;;;;6174240;28;20055;-87
2024/02/22 05:13:56;;;;;;;12.75;2.17;;;9.80;99.90;;;;;;6179767;28;20051;-85
2024/02/22 05:16:58;;;;;;;17.25;2.55;;;9.80;99.90;;;;;;6198854;28;20062;-84
2024/02/22 05:20:00;;;;;;;13.07;2.30;;;9.90;99.90;;;;;;6185517;28;20141;-84
2024/02/22 05:23:02;;;;;;;12.95;2.53;;;10.00;99.90;;;;;;6193013;28;20046;-84
2024/02/22 05:26:04;;;;;;;11.43;1.85;;;10.00;99.90;;;;;;6176315;28;20047;-84
2024/02/22 05:29:07;;;;;;;15.70;2.50;;;10.00;99.90;;;;;;6180528;28;20050;-88
2024/02/22 05:32:09;;;;;;;15.65;2.35;;;10.00;99.90;;;;;;6178501;28;20082;-85
2024/02/22 05:35:11;;;;;;;15.68;3.03;;;9.90;99.90;;;;;;6192940;28;20057;-88
2024/02/22 05:38:13;;;;;;;15.02;2.38;;;10.00;99.90;;;;;;6193433;28;20053;-87
2024/02/22 05:41:15;;;;;;;10.00;2.40;;;9.90;99.90;;;;;;6184531;28;20082;-89
2024/02/22 05:44:17;;;;;;;15.68;2.20;;;9.90;99.90;;;;;;6168640;28;20170;-88
2024/02/22 05:47:18;;;;;;;12.38;2.20;;;9.90;99.90;;;;;;6200074;28;20050;-90
2024/02/22 05:50:20;;;;;;;24.60;2.95;;;9.80;99.90;;;;;;6174067;28;20202;-88
2024/02/22 05:53:22;;;;;;;15.75;2.75;;;9.90;99.90;;;;;;6198645;28;20072;-89
2024/02/22 05:56:24;;;;;;;14.32;2.25;;;9.90;99.90;;;;;;6174820;28;20055;-87
2024/02/22 05:59:25;;;;;;;14.50;2.45;;;9.90;99.90;;;;;;6172995;28;20085;-88
2024/02/22 06:02:27;;;;;;;11.15;2.30;;;10.00;99.90;;;;;;6199224;28;20493;-90
2024/02/22 06:05:29;;;;;;;9.55;2.25;;;10.00;99.90;;;;;;6175022;28;20525;-85
2024/02/22 06:08:34;;;;;;;11.13;1.85;;;10.00;99.90;;;;;;6197195;28;20050;-86
2024/02/22 06:11:35;;;;;;;12.38;2.05;;;10.00;99.90;;;;;;6174746;28;20059;-87
2024/02/22 06:14:37;;;;;;;11.13;1.80;;;10.00;99.90;;;;;;6188833;28;20064;-88
2024/02/22 06:17:39;;;;;;;14.77;2.42;;;10.00;99.90;;;;;;6175887;28;20046;-85
2024/02/22 06:20:41;;;;;;;10.60;1.55;;;10.00;99.90;;;;;;6204463;28;20135;-88
2024/02/22 06:23:42;;;;;;;14.70;2.42;;;10.10;99.90;;;;;;6182194;28;20043;-87
2024/02/22 06:26:44;;;;;;;14.13;2.53;;;10.10;99.90;;;;;;6189254;28;20054;-87
2024/02/22 06:29:46;;;;;;;11.88;2.22;;;10.10;99.90;;;;;;6178028;28;20062;-88
2024/02/22 06:32:47;;;;;;;13.82;2.35;;;10.10;99.90;;;;;;6192374;28;20494;-88
2024/02/22 06:35:49;;;;;;;12.25;1.98;;;10.20;99.90;;;;;;6191617;28;20061;-88
2024/02/22 06:38:51;;;;;;;9.85;1.85;;;10.20;99.90;;;;;;6189906;28;20450;-86
2024/02/22 06:41:54;;;;;;;10.95;1.85;;;10.10;99.90;;;;;;6188023;28;20054;-87
2024/02/22 06:44:55;;;;;;;12.23;2.28;;;10.20;99.90;;;;;;6181246;28;20082;-88
2024/02/22 06:47:58;;;;;;;14.98;2.47;;;10.10;99.90;;;;;;6188764;28;20050;-88
2024/02/22 06:51:00;;;;;;;15.02;2.00;;;10.10;99.90;;;;;;6189907;28;20401;-89
2024/02/22 06:54:01;;;;;;;12.65;2.42;;;10.10;99.90;;;;;;6187542;28;20514;-87
2024/02/22 06:57:05;;;;;;;10.32;1.80;;;10.10;99.90;;;;;;6184191;28;20065;-88
2024/02/22 07:00:09;;;;;;;9.32;2.00;;;10.10;99.90;;;;;;6172001;28;20050;-89
2024/02/22 07:03:11;;;;;;;11.48;2.22;;;10.20;99.90;;;;;;6192178;28;20050;-86
2024/02/22 07:06:15;;;;;;;12.88;2.20;;;10.10;99.90;;;;;;6192202;28;20046;-87
2024/02/22 07:09:16;;;;;;;11.38;2.13;;;10.10;99.90;;;;;;6192341;28;20050;-87
2024/02/22 07:12:18;;;;;;;11.02;2.40;;;10.10;99.90;;;;;;6191047;28;20498;-88
2024/02/22 07:15:20;;;;;;;15.63;2.63;;;10.20;99.90;;;;;;6181652;28;20078;-88
2024/02/22 07:18:21;;;;;;;11.05;2.33;;;10.10;99.90;;;;;;6185372;28;20125;-89
2024/02/22 07:21:23;;;;;;;12.07;2.85;;;10.20;99.90;;;;;;6189688;28;20085;-87
2024/02/22 07:24:25;;;;;;;8.05;2.22;;;10.20;99.90;;;;;;6190796;28;20054;-87
2024/02/22 07:27:27;;;;;;;12.60;2.75;;;10.30;99.90;;;;;;6193895;28;20137;-87
2024/02/22 07:30:30;;;;;;;11.07;2.42;;;10.30;99.90;;;;;;6184131;28;20133;-89
2024/02/22 07:33:31;;;;;;;10.75;2.05;;;10.40;99.90;;;;;;6187629;28;20054;-88
2024/02/22 07:36:33;;;;;;;12.30;2.30;;;10.40;99.90;;;;;;6193942;28;20449;-90
2024/02/22 07:39:35;;;;;;;8.73;2.22;;;10.40;99.90;;;;;;6190644;28;20050;-89
2024/02/22 07:42:36;;;;;;;7.68;1.75;;;10.40;99.90;;;;;;6191384;28;20054;-89
2024/02/22 07:45:38;;;;;;;8.60;2.15;;;10.40;99.90;;;;;;6180976;28;20077;-89
2024/02/22 07:48:40;;;;;;;6.57;1.77;;;10.40;99.90;;;;;;6195604;28;20428;-89
2024/02/22 07:51:42;;;;;;;9.20;1.90;;;10.40;99.90;;;;;;6189748;28;20062;-91
2024/02/22 07:54:58;;;;;;;9.05;1.70;;;10.40;99.90;;;;;;6188939;28;20200;-90
2024/02/22 07:58:00;;;;;;;5.03;1.13;;;10.50;99.90;;;;;;6185754;28;20703;-90
2024/02/22 08:01:02;;;;;;;5.60;1.33;;;10.50;99.90;;;;;;6189376;28;20055;-87
2024/02/22 08:04:04;;;;;;;4.45;1.13;;;10.50;99.90;;;;;;6191291;28;20053;-89
2024/02/22 08:07:06;;;;;;;3.20;1.10;;;10.50;99.90;;;;;;6188018;28;20061;-88
2024/02/22 08:10:07;;;;;;;2.75;0.80;;;10.50;99.90;;;;;;6193196;28;20552;-91
2024/02/22 08:13:09;;;;;;;4.25;0.93;;;10.60;99.90;;;;;;6186675;28;20062;-87
2024/02/22 08:16:11;;;;;;;3.90;0.80;;;10.60;99.90;;;;;;6184509;28;20065;-90
2024/02/22 08:19:13;;;;;;;2.42;0.80;;;10.60;99.90;;;;;;6190363;28;20055;-87
2024/02/22 08:22:16;;;;;;;2.08;0.70;;;10.60;99.90;;;;;;6177890;28;20058;-89
2024/02/22 08:25:23;;;;;;;1.50;0.50;;;10.80;99.90;;;;;;6177694;28;20100;-86
2024/02/22 08:28:28;;;;;;;1.10;0.50;;;10.80;99.90;;;;;;6167403;28;20059;-85
2024/02/22 08:31:30;;;;;;;1.05;0.50;;;10.90;99.90;;;;;;6181911;28;20061;-84
2024/02/22 08:34:32;;;;;;;1.27;0.50;;;10.90;99.90;;;;;;6179312;28;20053;-88
2024/02/22 08:37:36;;;;;;;1.15;0.40;;;11.00;99.90;;;;;;6188406;28;20085;-87
2024/02/22 08:40:38;;;;;;;1.30;0.40;;;11.30;99.90;;;;;;6194125;28;20304;-90
2024/02/22 08:43:42;;;;;;;0.75;0.40;;;11.30;99.90;;;;;;6175413;28;20099;-93
2024/02/22 08:46:44;;;;;;;1.15;0.45;;;11.30;99.90;;;;;;6195077;28;20054;-93
2024/02/22 08:49:46;;;;;;;0.68;0.40;;;11.30;99.90;;;;;;6194002;28;20446;-90
2024/02/22 08:52:47;;;;;;;2.92;0.50;;;11.30;99.90;;;;;;6195739;28;20136;-86
2024/02/22 08:55:49;;;;;;;1.50;0.50;;;11.20;99.90;;;;;;6192904;28;20090;-86
2024/02/22 08:58:51;;;;;;;0.80;0.50;;;11.20;99.90;;;;;;6187598;28;20107;-90
2024/02/22 09:01:53;;;;;;;2.25;0.70;;;11.10;99.90;;;;;;6186607;28;20526;-83
2024/02/22 09:04:55;;;;;;;1.17;0.63;;;11.10;99.90;;;;;;6183904;28;20109;-90
2024/02/22 09:07:59;;;;;;;3.22;0.75;;;11.30;99.90;;;;;;6188612;28;20584;-80
2024/02/22 09:11:01;;;;;;;2.28;0.85;;;11.30;99.90;;;;;;6176996;28;20061;-81
2024/02/22 09:14:03;;;;;;;1.40;0.60;;;11.30;99.90;;;;;;6173172;28;20063;-81
2024/02/22 09:17:04;;;;;;;1.40;0.70;;;11.20;99.90;;;;;;6186478;28;20157;-83
2024/02/22 09:20:06;;;;;;;1.83;0.80;;;11.10;99.90;;;;;;6185981;28;20084;-88
2024/02/22 09:23:08;;;;;;;2.10;0.63;;;11.00;99.90;;;;;;6185592;28;20058;-89
2024/02/22 09:26:12;;;;;;;1.25;0.60;;;11.00;99.90;;;;;;6190290;28;20051;-91
2024/02/22 09:29:17;;;;;;;1.38;0.50;;;11.10;99.90;;;;;;6172973;28;20058;-89
2024/02/22 09:32:19;;;;;;;1.67;0.60;;;11.20;99.90;;;;;;6192315;28;20499;-89
2024/02/22 09:35:22;;;;;;;1.10;0.40;;;11.70;99.90;;;;;;6184845;28;20089;-94
2024/02/22 09:38:28;;;;;;;0.60;0.40;;;12.40;99.90;;;;;;6199797;28;20065;-89
2024/02/22 09:41:29;;;;;;;3.10;0.50;;;12.80;99.90;;;;;;6176010;28;20055;-93
2024/02/22 09:44:32;;;;;;;1.33;0.40;;;12.80;99.90;;;;;;6174305;28;20065;-92
2024/02/22 09:47:34;;;;;;;0.45;0.32;;;12.50;99.90;;;;;;6174487;28;20061;-91
2024/02/22 09:50:37;;;;;;;1.35;0.50;;;12.30;99.90;;;;;;6196932;28;20070;-91
2024/02/22 09:53:39;;;;;;;2.50;0.32;;;12.30;99.90;;;;;;6177266;28;20550;-92
2024/02/22 09:56:40;;;;;;;0.88;0.40;;;12.20;99.90;;;;;;6202124;28;20489;-92
2024/02/22 09:59:42;;;;;;;0.68;0.40;;;12.10;99.90;;;;;;6159511;28;20051;-91
2024/02/22 10:02:45;;;;;;;1.98;0.60;;;12.10;99.90;;;;;;6204463;28;20058;-91
2024/02/22 10:05:47;;;;;;;0.63;0.40;;;12.00;99.90;;;;;;6177402;28;20062;-91
2024/02/22 10:08:49;;;;;;;3.08;0.45;;;12.00;99.90;;;;;;6200379;28;20054;-89
2024/02/22 10:11:51;;;;;;;5.22;0.57;;;12.00;99.90;;;;;;6178437;28;20063;-92
2024/02/22 10:14:53;;;;;;;1.17;0.52;;;12.00;99.90;;;;;;6197025;28;20485;-94
2024/02/22 10:17:55;;;;;;;1.10;0.50;;;12.20;99.90;;;;;;6177968;28;20066;-88
2024/02/22 10:20:57;;;;;;;1.15;0.50;;;12.30;99.90;;;;;;6201151;28;20058;-91
2024/02/22 10:23:59;;;;;;;1.10;0.47;;;12.40;99.90;;;;;;6177919;28;20086;-92
2024/02/22 10:27:01;;;;;;;2.78;1.60;;;12.60;99.90;;;;;;6200569;28;20441;-93
2024/02/22 10:30:05;;;;;;;1.27;0.40;;;12.60;99.90;;;;;;6157696;28;20054;-93
2024/02/22 10:33:06;;;;;;;0.85;0.40;;;12.60;99.90;;;;;;6200994;28;20058;-88
2024/02/22 10:36:08;;;;;;;0.73;0.43;;;12.50;99.90;;;;;;6182076;28;20050;-90
2024/02/22 10:39:11;;;;;;;1.25;0.40;;;12.50;99.90;;;;;;6183089;28;20788;-83
2024/02/22 10:42:15;;;;;;;1.50;0.50;;;12.40;99.90;;;;;;6188396;28;20486;-86
2024/02/22 10:45:17;;;;;;;0.85;0.47;;;12.50;99.90;;;;;;6174219;28;20079;-88
2024/02/22 10:48:19;;;;;;;1.02;0.50;;;12.50;99.90;;;;;;6188239;28;20075;-87
2024/02/22 10:51:22;;;;;;;1.10;0.50;;;12.50;99.90;;;;;;6199421;28;20662;-88
2024/02/22 10:54:24;;;;;;;1.92;0.60;;;12.60;99.90;;;;;;6176457;28;20058;-92
2024/02/22 10:57:25;;;;;;;0.68;0.40;;;12.70;99.90;;;;;;6189933;28;20068;-94
2024/02/22 11:00:27;;;;;;;2.15;0.40;;;12.80;99.90;;;;;;6200886;28;20058;-89
2024/02/22 11:03:31;;;;;;;0.63;0.47;;;13.00;99.90;;;;;;6196956;28;20050;-92
2024/02/22 11:06:33;;;;;;;0.70;0.40;;;13.20;99.90;;;;;;6192299;28;20046;-90
2024/02/22 11:09:35;;;;;;;0.88;0.50;;;13.10;99.90;;;;;;6188621;28;20054;-92
2024/02/22 11:12:36;;;;;;;1.27;0.50;;;13.20;99.90;;;;;;6199488;28;20042;-93
2024/02/22 11:15:38;;;;;;;2.67;0.60;;;13.10;99.90;;;;;;6179794;28;20050;-92
2024/02/22 11:18:40;;;;;;;1.35;0.50;;;13.10;99.90;;;;;;6189080;28;20050;-93
2024/02/22 11:21:41;;;;;;;3.78;0.60;;;13.00;99.90;;;;;;6193219;28;20087;-94
2024/02/22 11:24:43;;;;;;;1.92;0.60;;;13.00;99.90;;;;;;6201302;28;20058;-91
2024/02/22 11:27:45;;;;;;;1.30;0.70;;;13.00;99.90;;;;;;6188519;28;20043;-83
2024/02/22 11:31:02;;;;;;;2.38;0.60;;;13.00;99.90;;;;;;6179507;28;20051;-92
2024/02/22 11:34:04;;;;;;;1.05;0.40;;;13.00;99.90;;;;;;6181253;28;20055;-92
2024/02/22 11:37:05;;;;;;;1.98;0.52;;;13.10;99.90;;;;;;6194651;28;20054;-91
2024/02/22 11:40:10;;;;;;;1.80;0.57;;;13.10;99.90;;;;;;6187445;28;20061;-92
2024/02/22 11:43:12;;;;;;;3.10;0.60;;;13.00;99.90;;;;;;6205297;28;20378;-92
2024/02/22 11:46:14;;;;;;;2.45;0.57;;;13.00;99.90;;;;;;6204844;28;20054;-94
2024/02/22 11:49:16;;;;;;;1.60;0.45;;;13.10;99.90;;;;;;6195314;28;20148;-92
2024/02/22 11:52:18;;;;;;;1.10;0.60;;;13.10;99.90;;;;;;6196705;28;20294;-91
2024/02/22 11:55:20;;;;;;;2.53;0.50;;;13.10;99.90;;;;;;6193266;28;20514;-93
2024/02/22 11:58:22;;;;;;;2.58;0.70;;;13.00;99.90;;;;;;6198934;28;20485;-92
2024/02/22 12:01:24;;;;;;;0.82;0.40;;;12.90;99.90;;;;;;6178529;28;20155;-92
2024/02/22 12:04:26;;;;;;;1.45;0.43;;;12.30;99.90;;;;;;6195930;28;20061;-89
2024/02/22 12:07:28;;;;;;;1.10;0.57;;;11.50;99.90;;;;;;6193457;28;20058;-88
2024/02/22 12:10:30;;;;;;;0.52;0.40;;;11.00;99.90;;;;;;6178721;28;20057;-87
2024/02/22 12:13:32;;;;;;;1.67;0.50;;;10.70;99.90;;;;;;6163726;28;20750;-88
2024/02/22 12:16:34;;;;;;;3.10;0.50;;;10.40;99.90;;;;;;6182997;28;20149;-90
2024/02/22 12:19:35;;;;;;;1.48;0.50;;;10.30;99.90;;;;;;6182203;28;20059;-91
2024/02/22 12:22:37;;;;;;;2.65;0.55;;;10.10;99.90;;;;;;6184287;28;20053;-89
2024/02/22 12:25:39;;;;;;;1.23;0.50;;;10.10;99.90;;;;;;6187652;28;20054;-89
2024/02/22 12:28:41;;;;;;;2.60;0.47;;;10.10;99.90;;;;;;6171875;28;20046;-89
2024/02/22 12:31:44;;;;;;;1.33;0.50;;;10.00;99.90;;;;;;6180129;28;20494;-90
2024/02/22 12:34:46;;;;;;;1.13;0.60;;;9.90;99.90;;;;;;6196663;28;20184;-92
2024/02/22 12:37:49;;;;;;;3.50;1.00;;;9.80;99.90;;;;;;6176238;28;20070;-92
2024/02/22 12:40:51;;;;;;;2.67;0.70;;;9.80;99.90;;;;;;6186323;28;20189;-85
2024/02/22 12:43:55;;;;;;;1.67;0.70;;;10.00;99.90;;;;;;6163459;28;20400;-87
2024/02/22 12:47:00;;;;;;;1.00;0.50;;;10.10;99.90;;;;;;6191038;28;20525;-88
2024/02/22 12:50:02;;;;;;;2.20;0.60;;;10.30;99.90;;;;;;6176196;28;20080;-86
2024/02/22 12:53:04;;;;;;;1.38;0.50;;;10.30;99.90;;;;;;6183948;28;20058;-85
2024/02/22 12:56:06;;;;;;;1.02;0.50;;;10.30;99.90;;;;;;6186947;28;20050;-85
2024/02/22 12:59:08;;;;;;;1.83;0.70;;;10.30;99.90;;;;;;6163023;28;20054;-85
2024/02/22 13:02:10;;;;;;;2.30;0.80;;;10.30;99.90;;;;;;6174977;28;20059;-86
2024/02/22 13:05:12;;;;;;;1.65;0.60;;;10.10;99.90;;;;;;6192741;28;20549;-87
2024/02/22 13:08:14;;;;;;;1.80;0.60;;;9.90;99.90;;;;;;6181432;28;20058;-86
2024/02/22 13:11:27;;;;;;;2.03;0.60;;;9.90;99.90;;;;;;6185124;28;20066;-85
2024/02/22 13:14:29;;;;;;;3.45;0.80;;;9.70;99.90;;;;;;6170693;28;20749;-86
2024/02/22 13:17:30;;;;;;;3.03;0.80;;;9.60;99.90;;;;;;6183364;28;20507;-87
2024/02/22 13:20:34;;;;;;;2.00;0.70;;;9.60;99.90;;;;;;6177529;28;20050;-87
2024/02/22 13:23:38;;;;;;;3.63;0.98;;;9.50;99.90;;;;;;6176903;28;20053;-87
2024/02/22 13:26:41;;;;;;;4.70;1.00;;;9.40;99.90;;;;;;6172738;28;20054;-87
2024/02/22 13:29:44;;;;;;;4.80;1.20;;;9.40;99.90;;;;;;6163478;28;20545;-87
2024/02/22 13:32:46;;;;;;;2.90;0.82;;;9.40;99.90;;;;;;6189118;28;20414;-87
2024/02/22 13:35:50;;;;;;;3.17;0.93;;;9.40;99.90;;;;;;6188350;28;20070;-88
2024/02/22 13:38:52;;;;;;;2.92;0.77;;;9.40;99.90;;;;;;6177624;28;20062;-88
2024/02/22 13:41:54;;;;;;;2.15;0.80;;;9.40;99.90;;;;;;6187215;28;20047;-86
2024/02/22 13:44:56;;;;;;;3.17;0.90;;;9.50;99.90;;;;;;6179845;28;20054;-87
2024/02/22 13:47:58;;;;;;;2.10;0.88;;;9.50;99.90;;;;;;6192730;28;20054;-86
2024/02/22 13:50:59;;;;;;;2.80;0.93;;;9.50;99.90;;;;;;6175692;28;20108;-83
2024/02/22 13:54:01;;;;;;;2.88;0.88;;;9.40;99.90;;;;;;6173862;28;20165;-83
2024/02/22 13:57:05;;;;;;;2.22;0.80;;;9.50;99.90;;;;;;6179931;28;20145;-83
2024/02/22 14:00:07;;;;;;;3.72;1.00;;;9.40;99.90;;;;;;6157350;28;20054;-84
2024/02/22 14:03:10;;;;;;;2.80;0.80;;;9.50;99.90;;;;;;6186195;28;20102;-85
2024/02/22 14:06:14;;;;;;;2.90;0.85;;;9.40;99.90;;;;;;6174194;28;20050;-84
2024/02/22 14:09:16;;;;;;;4.07;1.00;;;9.40;99.90;;;;;;6180538;28;20062;-83
2024/02/22 14:12:18;;;;;;;3.38;1.02;;;9.30;99.90;;;;;;6188023;28;20073;-82
2024/02/22 14:15:19;;;;;;;4.47;1.20;;;9.30;99.90;;;;;;6168509;28;20130;-83
2024/02/22 14:18:22;;;;;;;5.45;1.13;;;9.30;99.90;;;;;;6174294;28;20528;-82
2024/02/22 14:21:24;;;;;;;3.13;1.20;;;9.10;99.90;;;;;;6187982;28;20180;-82
2024/02/22 14:24:26;;;;;;;4.80;1.13;;;9.10;99.90;;;;;;6190968;28;20548;-83
2024/02/22 14:30:50;;;;;;;5.97;1.25;;;9.10;99.90;;;;;;6176386;23;20471;-92
2024/02/22 14:33:51;;;;;;;4.57;1.10;;;9.20;99.90;;;;;;6176392;28;20138;-91
2024/02/22 14:36:53;;;;;;;2.65;0.80;;;8.90;99.90;;;;;;6194439;28;20078;-88
2024/02/22 14:39:55;;;;;;;1.90;0.68;;;9.10;99.90;;;;;;6183531;28;20031;-93
2024/02/22 14:42:56;;;;;;;2.47;0.85;;;8.50;99.90;;;;;;6193976;28;20086;-92
2024/02/22 14:45:58;;;;;;;3.00;0.80;;;8.40;99.90;;;;;;6173259;28;20042;-90
2024/02/22 14:49:00;;;;;;;2.10;0.70;;;8.20;99.90;;;;;;6176014;28;20598;-88
2024/02/22 14:52:02;;;;;;;1.55;0.60;;;8.40;99.90;;;;;;6185792;28;20066;-87
2024/02/22 14:55:03;;;;;;;1.98;0.60;;;8.00;99.90;;;;;;6191521;28;20051;-87
2024/02/22 14:58:11;;;;;;;2.20;0.80;;;7.90;99.90;;;;;;6166184;28;20756;-91
2024/02/22 15:01:12;;;;;;;3.05;0.80;;;7.80;99.90;;;;;;6183170;28;20059;-89
2024/02/22 15:04:14;;;;;;;3.08;0.70;;;7.70;99.90;;;;;;6191071;28;20156;-91
2024/02/22 15:07:16;;;;;;;2.10;0.77;;;7.60;99.90;;;;;;6153780;28;20190;-90
2024/02/22 15:10:18;;;;;;;2.45;0.70;;;7.70;99.90;;;;;;6173529;28;20145;-89
2024/02/22 15:13:26;;;;;;;2.40;0.70;;;7.60;99.90;;;;;;6154562;28;20062;-84
2024/02/22 15:16:28;;;;;;;2.03;0.57;;;7.70;99.90;;;;;;6178862;28;20078;-90
2024/02/22 15:19:33;;;;;;;3.38;0.77;;;7.60;99.90;;;;;;6176766;28;20199;-90
2024/02/22 15:22:37;;;;;;;2.75;0.60;;;7.50;99.90;;;;;;6173367;28;20059;-92
2024/02/22 15:25:39;;;;;;;2.60;0.70;;;7.50;99.90;;;;;;6175290;28;20089;-90
2024/02/22 15:28:41;;;;;;;1.52;0.60;;;7.40;99.90;;;;;;6153163;28;20050;-87
2024/02/22 15:31:42;;;;;;;2.05;0.70;;;7.40;99.90;;;;;;6183762;28;20143;-90
2024/02/22 15:34:45;;;;;;;4.45;0.80;;;7.30;99.90;;;;;;6187441;28;20098;-88
2024/02/22 15:37:47;;;;;;;3.35;0.70;;;7.20;99.90;;;;;;6170336;28;20051;-91
2024/02/22 15:40:49;;;;;;;4.45;0.98;;;7.20;99.90;;;;;;6173532;28;20058;-90
2024/02/22 15:43:55;;;;;;;2.15;0.65;;;7.10;99.90;;;;;;6162663;28;20645;-92
2024/02/22 15:46:57;;;;;;;1.98;0.65;;;7.10;99.90;;;;;;6179750;28;20051;-91
2024/02/22 15:50:01;;;;;;;3.63;1.20;;;7.10;99.90;;;;;;6165155;28;20058;-90
2024/02/22 15:53:06;;;;;;;3.67;1.00;;;7.20;99.90;;;;;;6161316;28;20114;-90